Time;durP1;ratioP1;P1;durP2;ratioP2;P2;SDS_P1;SDS_P2;PMS_P1;PMS_P2;Temp;Humidity;BMP_temperature;BMP_pressure;BME280_temperature;BME280_humidity;BME280_pressure;Samples;Min_cycle;Max_cycle;Signal;HPM_P1;HPM_P2
2021/12/14 00:01:46;;;;;;;11.70;5.20;;;;;;;7.19;100.00;102699.06;5224461;28;20066;-73
2021/12/14 00:04:20;;;;;;;12.52;5.45;;;;;;;7.19;100.00;102707.06;5224259;28;20029;-73
2021/12/14 00:06:52;;;;;;;12.50;5.70;;;;;;;7.18;100.00;102715.19;5224573;28;20029;-73
2021/12/14 00:09:30;;;;;;;14.63;5.38;;;;;;;7.17;100.00;102700.94;5224103;28;20050;-72
2021/12/14 00:17:22;;;;;;;14.35;5.55;;;;;;;7.11;100.00;102696.00;5225407;28;20489;-72
2021/12/14 00:19:54;;;;;;;15.20;6.38;;;;;;;7.10;100.00;102696.97;5234387;28;20029;-73
2021/12/14 00:22:36;;;;;;;13.38;5.80;;;;;;;7.12;100.00;102700.38;5224192;28;20055;-72
2021/12/14 00:25:07;;;;;;;14.60;6.18;;;;;;;7.16;100.00;102712.59;5227263;28;20064;-73
2021/12/14 00:27:38;;;;;;;13.80;6.45;;;;;;;7.17;100.00;102719.63;5224369;28;20107;-72
2021/12/14 00:30:10;;;;;;;16.05;6.95;;;;;;;7.16;100.00;102717.94;5224125;28;20098;-73
2021/12/14 00:32:41;;;;;;;22.67;7.43;;;;;;;7.14;100.00;102733.19;5224262;28;20048;-73
2021/12/14 00:35:13;;;;;;;19.20;7.20;;;;;;;7.11;100.00;102733.38;5223990;28;20114;-73
2021/12/14 00:37:49;;;;;;;27.05;8.70;;;;;;;7.15;100.00;102742.91;5224182;28;20791;-73
2021/12/14 00:40:24;;;;;;;25.63;8.95;;;;;;;7.12;100.00;102732.41;5224251;28;20264;-72
2021/12/14 00:42:56;;;;;;;;;;;;;;;7.12;100.00;102735.09;5224357;28;20020;-73
2021/12/14 00:45:29;;;;;;;25.60;10.85;;;;;;;7.12;100.00;102734.22;5222381;28;19913;-73
2021/12/14 00:48:00;;;;;;;30.63;12.05;;;;;;;7.10;100.00;102737.00;5223769;28;20032;-73
2021/12/14 00:50:31;;;;;;;30.80;10.90;;;;;;;7.13;100.00;102747.50;5223823;28;20032;-72
2021/12/14 00:53:03;;;;;;;37.75;11.23;;;;;;;7.15;100.00;102750.06;5223797;28;20132;-73
2021/12/14 00:55:40;;;;;;;32.35;12.30;;;;;;;7.15;100.00;102752.72;5222063;28;20056;-73
2021/12/14 00:58:12;;;;;;;29.27;9.98;;;;;;;7.16;100.00;102749.09;5223259;28;20028;-73
2021/12/14 01:00:51;;;;;;;35.60;11.88;;;;;;;7.16;100.00;102752.63;5223638;28;20021;-73
2021/12/14 01:03:23;;;;;;;33.17;11.82;;;;;;;7.13;100.00;102751.97;5223119;28;20079;-73
2021/12/14 01:05:54;;;;;;;34.80;13.75;;;;;;;7.13;100.00;102763.53;5223368;28;20094;-73
2021/12/14 01:08:34;;;;;;;30.92;12.10;;;;;;;7.15;100.00;102760.75;5223502;28;20071;-73
2021/12/14 01:11:32;;;;;;;26.67;10.98;;;;;;;7.13;100.00;102751.97;5222066;28;20044;-73
2021/12/14 01:14:10;;;;;;;31.80;11.35;;;;;;;7.11;100.00;102746.72;5210756;28;20017;-73
2021/12/14 01:16:52;;;;;;;30.58;11.77;;;;;;;7.08;100.00;102733.59;5223146;28;20090;-72
2021/12/14 01:19:28;;;;;;;35.55;12.32;;;;;;;7.01;100.00;102737.59;5208575;28;20494;-72
2021/12/14 01:27:25;;;;;;;27.83;10.80;;;;;;;6.99;100.00;102721.69;5222690;28;20021;-73
2021/12/14 01:29:56;;;;;;;25.52;9.75;;;;;;;7.04;100.00;102725.88;5221641;28;20029;-72
2021/12/14 01:32:29;;;;;;;23.30;9.93;;;;;;;6.98;100.00;102727.13;5222903;28;20021;-72
2021/12/14 01:35:01;;;;;;;25.65;10.38;;;;;;;6.99;100.00;102742.19;5222035;28;20025;-73
2021/12/14 01:37:40;;;;;;;24.98;10.10;;;;;;;6.98;100.00;102740.47;5221778;28;20179;-72
2021/12/14 01:40:29;;;;;;;28.55;10.10;;;;;;;6.96;100.00;102743.22;5221943;28;20021;-72
2021/12/14 01:42:59;;;;;;;32.35;9.95;;;;;;;6.92;100.00;102739.00;5221709;28;20029;-72
2021/12/14 01:45:30;;;;;;;25.27;9.43;;;;;;;6.93;100.00;102740.75;5222311;28;20028;-72
2021/12/14 01:48:00;;;;;;;20.20;8.98;;;;;;;6.90;100.00;102738.28;5222591;28;20024;-72
2021/12/14 01:50:43;;;;;;;33.08;10.25;;;;;;;6.90;100.00;102735.59;5221070;28;20447;-72
2021/12/14 01:53:15;;;;;;;22.52;8.80;;;;;;;6.92;100.00;102724.81;5222705;28;20031;-72
2021/12/14 01:55:51;;;;;;;22.45;9.57;;;;;;;6.93;100.00;102735.41;5222406;28;20036;-72
2021/12/14 01:58:24;;;;;;;20.88;9.18;;;;;;;6.85;100.00;102728.84;5222641;28;20033;-72
2021/12/14 02:01:00;;;;;;;28.85;8.65;;;;;;;6.84;100.00;102716.47;5222210;28;20056;-72
2021/12/14 02:03:35;;;;;;;24.35;10.93;;;;;;;6.81;100.00;102712.16;5222930;28;20037;-72
2021/12/14 02:06:06;;;;;;;27.38;10.15;;;;;;;6.80;100.00;102707.78;5222424;28;20025;-72
2021/12/14 02:08:37;;;;;;;28.38;10.88;;;;;;;6.85;100.00;102705.69;5222795;28;20040;-72
2021/12/14 02:11:09;;;;;;;29.98;11.00;;;;;;;6.85;100.00;102703.03;5221111;28;20048;-72
2021/12/14 02:13:44;;;;;;;27.88;11.05;;;;;;;6.82;100.00;102695.19;5221865;28;20021;-72
2021/12/14 02:16:18;;;;;;;29.45;12.00;;;;;;;6.86;100.00;102702.06;5221957;28;20032;-72
2021/12/14 02:19:07;;;;;;;28.20;10.25;;;;;;;6.81;100.00;102700.63;5236122;28;20020;-72
2021/12/14 02:21:38;;;;;;;27.42;9.05;;;;;;;6.83;100.00;102696.03;5220516;28;20086;-72
2021/12/14 02:24:11;;;;;;;19.98;8.70;;;;;;;6.81;100.00;102689.97;5221725;28;20501;-72
2021/12/14 02:26:43;;;;;;;24.98;8.63;;;;;;;6.83;100.00;102690.72;5221327;28;20032;-72
2021/12/14 02:29:27;;;;;;;24.05;8.88;;;;;;;6.82;100.00;102687.19;5222278;28;20512;-72
2021/12/14 02:32:06;;;;;;;22.70;7.88;;;;;;;6.80;100.00;102683.78;5222087;28;20025;-72
2021/12/14 02:34:40;;;;;;;22.02;8.18;;;;;;;6.77;100.00;102691.97;5222136;28;20024;-72
2021/12/14 02:37:11;;;;;;;22.45;7.68;;;;;;;6.79;100.00;102698.06;5222327;28;20517;-72
2021/12/14 02:42:21;;;;;;;21.80;8.27;;;;;;;6.80;100.00;102699.78;5222054;28;20029;-72
2021/12/14 02:44:55;;;;;;;19.77;7.75;;;;;;;6.81;100.00;102701.50;5221632;28;20086;-72
2021/12/14 02:47:27;;;;;;;22.63;8.50;;;;;;;6.77;100.00;102705.31;5222129;28;20079;-72
2021/12/14 02:49:58;;;;;;;21.58;8.43;;;;;;;6.79;100.00;102707.88;5221840;28;20056;-72
2021/12/14 02:52:37;;;;;;;21.08;8.02;;;;;;;6.80;100.00;102709.59;5222102;28;20371;-72
2021/12/14 02:55:10;;;;;;;17.35;7.07;;;;;;;6.80;100.00;102705.13;5221030;28;20528;-72
2021/12/14 02:57:48;;;;;;;23.15;8.38;;;;;;;6.81;100.00;102704.16;5222087;28;20039;-72
2021/12/14 03:00:28;;;;;;;19.25;7.43;;;;;;;6.80;100.00;102694.44;5208714;28;20050;-72
2021/12/14 03:03:00;;;;;;;20.63;8.13;;;;;;;6.79;100.00;102700.75;5222155;28;20116;-72
2021/12/14 03:05:35;;;;;;;16.98;7.30;;;;;;;6.75;100.00;102693.88;5221061;28;20063;-72
2021/12/14 03:08:15;;;;;;;20.43;7.77;;;;;;;6.77;100.00;102689.28;5219364;28;20393;-72
2021/12/14 03:13:32;;;;;;;19.98;7.88;;;;;;;6.76;100.00;102692.91;5219589;28;20508;-72
2021/12/14 03:16:07;;;;;;;20.25;7.70;;;;;;;6.76;100.00;102684.91;5221281;28;20080;-72
2021/12/14 03:18:41;;;;;;;21.92;7.43;;;;;;;6.77;100.00;102673.28;5221586;28;20021;-73
2021/12/14 03:21:15;;;;;;;21.60;8.00;;;;;;;6.74;100.00;102674.34;5221566;28;20052;-73
2021/12/14 03:23:50;;;;;;;19.80;8.03;;;;;;;6.77;100.00;102683.09;5221531;28;20025;-72
2021/12/14 03:26:25;;;;;;;18.45;7.25;;;;;;;6.79;100.00;102674.06;5221111;28;20500;-72
2021/12/14 03:29:00;;;;;;;20.58;8.35;;;;;;;6.79;100.00;102665.22;5221793;28;20465;-72
2021/12/14 03:31:34;;;;;;;26.17;8.57;;;;;;;6.77;100.00;102662.63;5221473;28;20028;-72
2021/12/14 03:34:12;;;;;;;21.30;7.25;;;;;;;6.77;100.00;102659.09;5220727;28;20031;-72
2021/12/14 03:36:46;;;;;;;21.45;7.93;;;;;;;6.79;100.00;102650.06;5220870;28;20047;-72
2021/12/14 03:39:26;;;;;;;24.95;8.52;;;;;;;6.80;100.00;102645.56;5221465;28;20033;-72
2021/12/14 03:42:03;;;;;;;21.40;8.93;;;;;;;6.80;100.00;102642.91;5221154;28;20083;-72
2021/12/14 03:44:38;;;;;;;22.30;8.38;;;;;;;6.82;100.00;102635.66;5221446;28;20032;-73
2021/12/14 03:47:13;;;;;;;23.95;8.80;;;;;;;6.79;100.00;102628.72;5221442;28;20040;-72
2021/12/14 03:49:54;;;;;;;21.38;8.75;;;;;;;6.79;100.00;102625.19;5221170;28;20160;-73
2021/12/14 03:52:29;;;;;;;20.65;8.48;;;;;;;6.73;100.00;102634.44;5220113;28;20021;-72
2021/12/14 03:55:07;;;;;;;21.77;9.10;;;;;;;6.71;100.00;102631.84;5220654;28;20033;-73
2021/12/14 03:57:38;;;;;;;27.27;10.63;;;;;;;6.73;100.00;102634.44;5221127;28;20540;-73
2021/12/14 04:00:14;;;;;;;24.92;8.98;;;;;;;6.71;100.00;102631.84;5221063;28;20025;-73
2021/12/14 04:02:45;;;;;;;34.65;9.82;;;;;;;6.75;100.00;102635.19;5221050;28;20268;-72
2021/12/14 04:05:16;;;;;;;26.02;9.57;;;;;;;6.78;100.00;102647.47;5220809;28;20541;-72
2021/12/14 04:07:47;;;;;;;25.33;9.85;;;;;;;6.80;100.00;102662.44;5220451;28;20489;-72
2021/12/14 04:10:21;;;;;;;28.45;12.00;;;;;;;6.83;100.00;102675.59;5220856;28;20090;-72
2021/12/14 04:12:53;;;;;;;26.87;10.27;;;;;;;6.81;100.00;102677.47;5220223;28;20127;-73
2021/12/14 04:15:24;;;;;;;30.80;12.05;;;;;;;6.85;100.00;102683.50;5220921;28;20350;-73
2021/12/14 04:17:55;;;;;;;26.98;11.55;;;;;;;6.84;100.00;102676.44;5227273;28;20720;-72
2021/12/14 04:20:33;;;;;;;33.10;11.60;;;;;;;6.81;100.00;102676.63;5226968;28;20029;-72
2021/12/14 04:23:09;;;;;;;32.38;12.10;;;;;;;6.80;100.00;102688.25;5221018;28;20029;-73
2021/12/14 04:25:40;;;;;;;31.70;12.35;;;;;;;6.83;100.00;102690.72;5220400;28;20418;-72
2021/12/14 04:28:15;;;;;;;37.50;14.15;;;;;;;6.86;100.00;102699.38;5220574;28;20123;-73
2021/12/14 04:30:47;;;;;;;32.42;12.38;;;;;;;6.85;100.00;102692.34;5220555;28;20112;-73
2021/12/14 04:33:25;;;;;;;31.25;11.32;;;;;;;6.79;100.00;102687.41;5220996;28;20308;-73
2021/12/14 04:35:57;;;;;;;31.42;11.48;;;;;;;6.80;100.00;102694.44;5207702;28;20083;-72
2021/12/14 04:38:30;;;;;;;37.72;12.73;;;;;;;6.83;100.00;102691.59;5220623;28;20082;-73
2021/12/14 04:52:28;;;;;;;34.92;13.02;;;;;;;6.83;100.00;102667.59;5213713;28;20341;-72
2021/12/14 04:55:06;;;;;;;35.20;13.23;;;;;;;6.85;100.00;102676.34;5223856;28;20055;-72
2021/12/14 04:57:45;;;;;;;38.28;13.38;;;;;;;6.84;100.00;102668.44;5224078;28;20017;-72
2021/12/14 05:00:26;;;;;;;34.35;13.13;;;;;;;6.83;100.00;102662.25;5211184;28;20036;-73
2021/12/14 05:02:59;;;;;;;35.70;13.35;;;;;;;6.78;100.00;102677.69;5222687;28;20025;-73
2021/12/14 05:05:39;;;;;;;33.92;13.13;;;;;;;6.80;100.00;102674.91;5224153;28;20322;-73
2021/12/14 05:10:55;;;;;;;33.28;12.98;;;;;;;6.81;100.00;102674.81;5223774;28;20115;-73
2021/12/14 05:13:34;;;;;;;35.53;12.50;;;;;;;6.79;100.00;102670.53;5222370;28;20466;-72
2021/12/14 05:16:05;;;;;;;35.60;12.65;;;;;;;6.80;100.00;102672.25;5222226;28;20071;-72
2021/12/14 05:18:35;;;;;;;33.78;12.98;;;;;;;6.80;100.00;102673.09;5223092;28;20024;-72
2021/12/14 05:21:06;;;;;;;35.20;13.13;;;;;;;6.83;100.00;102672.03;5223476;28;20036;-72
2021/12/14 05:23:37;;;;;;;41.30;14.60;;;;;;;6.80;100.00;102669.59;5223656;28;20033;-72
2021/12/14 05:26:08;;;;;;;35.45;13.13;;;;;;;6.76;100.00;102674.25;5223184;28;20041;-72
2021/12/14 05:28:38;;;;;;;67.50;27.85;;;;;;;6.78;100.00;102685.69;5223458;28;20020;-72
2021/12/14 05:31:09;;;;;;;45.05;19.75;;;;;;;6.80;100.00;102693.59;5223475;28;20040;-72
2021/12/14 05:33:40;;;;;;;48.17;19.50;;;;;;;6.82;100.00;102686.34;5223654;28;20433;-73
2021/12/14 05:36:15;;;;;;;40.63;16.10;;;;;;;6.81;100.00;102700.63;5222933;28;20070;-72
2021/12/14 05:44:22;;;;;;;36.88;13.45;;;;;;;6.83;100.00;102698.72;5222755;28;20416;-72
2021/12/14 05:46:55;;;;;;;;;;;;;;;6.83;100.00;102707.59;5222056;28;20070;-72
2021/12/14 05:49:28;;;;;;;45.20;19.00;;;;;;;6.82;100.00;102707.69;5223343;28;20050;-72
2021/12/14 05:52:05;;;;;;;38.45;15.45;;;;;;;6.80;100.00;102709.59;5222474;28;20063;-72
2021/12/14 05:54:38;;;;;;;36.63;14.27;;;;;;;6.79;100.00;102698.06;5222384;28;20213;-72
2021/12/14 05:57:15;;;;;;;35.55;14.25;;;;;;;6.79;100.00;102691.88;5222036;28;20036;-72
2021/12/14 05:59:46;;;;;;;36.20;13.98;;;;;;;6.74;100.00;102689.50;5221045;28;20025;-72
2021/12/14 06:02:19;;;;;;;35.22;14.50;;;;;;;6.77;100.00;102689.28;5222366;28;20431;-72
2021/12/14 06:04:53;;;;;;;37.10;13.95;;;;;;;6.77;100.00;102699.97;5221353;28;20393;-72
2021/12/14 06:07:24;;;;;;;37.22;16.13;;;;;;;6.79;100.00;102700.75;5222989;28;20028;-72
2021/12/14 06:09:55;;;;;;;35.22;13.15;;;;;;;6.79;100.00;102702.56;5222455;28;20112;-73
2021/12/14 06:12:30;;;;;;;33.75;12.80;;;;;;;6.78;100.00;102704.38;5222293;28;20112;-73
2021/12/14 06:15:03;;;;;;;35.58;14.60;;;;;;;6.76;100.00;102706.25;5210580;28;20436;-72
2021/12/14 06:17:38;;;;;;;34.60;12.95;;;;;;;6.78;100.00;102711.50;5225784;28;20392;-74
2021/12/14 06:20:13;;;;;;;40.40;14.70;;;;;;;6.78;100.00;102716.81;5231478;28;20021;-73
2021/12/14 06:22:45;;;;;;;36.25;14.20;;;;;;;6.79;100.00;102705.22;5222362;28;20548;-73
2021/12/14 06:25:20;;;;;;;35.13;12.57;;;;;;;6.78;100.00;102714.16;5221742;28;20043;-72
2021/12/14 06:27:53;;;;;;;37.10;14.33;;;;;;;6.75;100.00;102713.41;5222411;28;20083;-73
2021/12/14 06:30:27;;;;;;;36.90;14.35;;;;;;;6.75;100.00;102716.06;5221103;28;20325;-73
2021/12/14 06:33:00;;;;;;;34.70;13.23;;;;;;;6.75;100.00;102710.75;5222454;28;20393;-72
2021/12/14 06:35:36;;;;;;;38.05;13.95;;;;;;;6.76;100.00;102708.94;5221673;28;20025;-73
2021/12/14 06:40:52;;;;;;;40.90;14.90;;;;;;;6.73;100.00;102703.81;5210290;28;20343;-72
2021/12/14 06:43:28;;;;;;;47.47;14.13;;;;;;;6.74;100.00;102711.69;5222421;28;20024;-72
2021/12/14 06:46:04;;;;;;;43.88;14.63;;;;;;;6.75;100.00;102710.75;5221835;28;20393;-73
2021/12/14 06:48:39;;;;;;;46.13;14.27;;;;;;;6.77;100.00;102712.44;5221005;28;20025;-72
2021/12/14 06:51:16;;;;;;;50.10;16.43;;;;;;;6.76;100.00;102724.94;5221970;28;20032;-72
2021/12/14 06:53:51;;;;;;;41.20;14.60;;;;;;;6.77;100.00;102718.63;5209759;28;20551;-72
2021/12/14 06:56:24;;;;;;;42.33;14.90;;;;;;;6.74;100.00;102719.69;5221980;28;20501;-72
2021/12/14 06:58:58;;;;;;;40.10;13.65;;;;;;;6.75;100.00;102728.56;5221725;28;20053;-73
2021/12/14 07:01:33;;;;;;;44.42;16.67;;;;;;;6.73;100.00;102722.47;5222050;28;20527;-72
2021/12/14 07:04:07;;;;;;;48.80;16.48;;;;;;;6.73;100.00;102719.81;5220519;28;20032;-72
2021/12/14 07:06:43;;;;;;;47.40;15.88;;;;;;;6.73;100.00;102722.47;5208438;28;20245;-72
2021/12/14 07:09:18;;;;;;;53.30;17.58;;;;;;;6.73;100.00;102726.00;5220058;28;20031;-72
2021/12/14 07:11:57;;;;;;;44.50;16.17;;;;;;;6.74;100.00;102725.03;5221580;28;20083;-73
2021/12/14 07:14:28;;;;;;;47.47;17.50;;;;;;;6.74;100.00;102733.03;5208139;28;20024;-72
2021/12/14 07:17:07;;;;;;;45.70;15.90;;;;;;;6.75;100.00;102733.91;5219703;28;20547;-72
2021/12/14 07:19:46;;;;;;;44.90;15.35;;;;;;;6.75;100.00;102732.09;5207868;28;20054;-72
2021/12/14 07:22:23;;;;;;;48.15;16.88;;;;;;;6.75;100.00;102724.06;5221199;28;20025;-72
2021/12/14 07:25:03;;;;;;;46.45;15.30;;;;;;;6.74;100.00;102727.69;5220994;28;20039;-74
2021/12/14 07:27:38;;;;;;;48.28;14.77;;;;;;;6.75;100.00;102739.22;5221440;28;20029;-74
2021/12/14 07:30:15;;;;;;;48.58;15.55;;;;;;;6.73;100.00;102743.81;5220963;28;20183;-74
2021/12/14 07:32:56;;;;;;;42.95;15.45;;;;;;;6.76;100.00;102762.28;5221360;28;20475;-74
2021/12/14 07:35:32;;;;;;;45.95;15.80;;;;;;;6.77;100.00;102753.31;5219547;28;20489;-75
2021/12/14 07:38:20;;;;;;;48.28;16.25;;;;;;;6.77;100.00;102774.66;5220943;28;20032;-74
2021/12/14 07:41:03;;;;;;;46.63;16.38;;;;;;;6.79;100.00;102785.25;5208569;28;20025;-74
2021/12/14 07:43:43;;;;;;;58.25;19.80;;;;;;;6.80;100.00;102787.81;5221017;28;20059;-74
2021/12/14 07:46:19;;;;;;;53.15;18.77;;;;;;;6.83;100.00;102784.09;5220989;28;20773;-74
2021/12/14 07:48:59;;;;;;;55.03;18.67;;;;;;;6.82;100.00;102793.03;5219645;28;20385;-75
2021/12/14 07:51:33;;;;;;;59.25;19.55;;;;;;;6.85;100.00;102800.88;5221165;28;20025;-75
2021/12/14 07:54:17;;;;;;;57.95;19.75;;;;;;;6.85;100.00;102799.06;5219982;28;20020;-75
2021/12/14 07:56:52;;;;;;;56.25;19.30;;;;;;;6.83;100.00;102798.31;5220861;28;20161;-75
2021/12/14 07:59:28;;;;;;;58.22;20.00;;;;;;;6.85;100.00;102803.53;5221133;28;20097;-74
2021/12/14 08:02:14;;;;;;;58.95;19.42;;;;;;;6.85;100.00;102803.53;5208192;28;20036;-73
2021/12/14 08:04:52;;;;;;;59.60;19.98;;;;;;;6.86;100.00;102802.59;5219558;28;20021;-74
2021/12/14 08:07:33;;;;;;;65.60;20.40;;;;;;;6.86;100.00;102810.59;5221168;28;20055;-74
2021/12/14 08:10:16;;;;;;;66.97;21.13;;;;;;;6.88;100.00;102804.22;5220294;28;20028;-75
2021/12/14 08:12:57;;;;;;;62.40;20.50;;;;;;;6.89;100.00;102816.59;5207362;28;20710;-73
2021/12/14 08:15:30;;;;;;;61.20;20.13;;;;;;;6.90;100.00;102818.31;5208614;28;20075;-73
2021/12/14 08:18:10;;;;;;;65.22;21.55;;;;;;;6.91;100.00;102806.69;5225789;28;20025;-73
2021/12/14 08:20:47;;;;;;;58.65;21.05;;;;;;;6.92;100.00;102819.06;5226676;28;20025;-74
2021/12/14 08:23:26;;;;;;;71.70;21.65;;;;;;;6.94;100.00;102819.84;5222364;28;20028;-74
2021/12/14 08:26:10;;;;;;;60.30;20.05;;;;;;;6.94;100.00;102819.84;5222271;28;20079;-74
2021/12/14 08:28:49;;;;;;;67.63;21.23;;;;;;;6.99;100.00;102819.56;5222479;28;20075;-74
2021/12/14 08:31:23;;;;;;;73.63;21.85;;;;;;;6.99;100.00;102816.91;5221505;28;20017;-74
2021/12/14 08:34:00;;;;;;;68.70;21.25;;;;;;;6.97;100.00;102816.97;5221480;28;20047;-74
2021/12/14 08:36:39;;;;;;;68.32;20.60;;;;;;;7.04;100.00;102808.59;5221597;28;20032;-74
2021/12/14 08:39:15;;;;;;;69.57;22.00;;;;;;;7.06;100.00;102812.03;5219395;28;20455;-75
2021/12/14 08:41:55;;;;;;;59.80;19.40;;;;;;;7.10;100.00;102801.06;5221683;28;20392;-74
2021/12/14 08:44:35;;;;;;;64.97;22.17;;;;;;;7.16;100.00;102802.50;5222263;28;20032;-73
2021/12/14 08:47:13;;;;;;;64.68;22.38;;;;;;;7.16;100.00;102799.81;5221192;28;20489;-73
2021/12/14 08:49:45;;;;;;;63.95;22.13;;;;;;;7.16;100.00;102806.00;5221141;28;20397;-74
2021/12/14 08:52:15;;;;;;;69.55;27.83;;;;;;;7.22;100.00;102810.97;5221029;28;20025;-73
2021/12/14 08:54:46;;;;;;;65.20;21.35;;;;;;;7.23;100.00;102815.38;5220672;28;20055;-73
2021/12/14 08:57:23;;;;;;;63.13;21.52;;;;;;;7.22;100.00;102815.44;5220652;28;20083;-73
2021/12/14 08:59:56;;;;;;;69.82;23.25;;;;;;;7.25;100.00;102820.59;5221314;28;20048;-74
2021/12/14 09:02:30;;;;;;;78.43;24.75;;;;;;;7.26;100.00;102824.97;5222387;28;20396;-75
2021/12/14 09:05:08;;;;;;;65.20;22.75;;;;;;;7.28;100.00;102820.44;5221002;28;20032;-72
2021/12/14 09:07:40;;;;;;;67.25;23.17;;;;;;;7.34;100.00;102821.84;5220545;28;20060;-75
2021/12/14 09:10:15;;;;;;;63.22;22.58;;;;;;;7.41;100.00;102834.69;5221363;28;20025;-74
2021/12/14 09:12:48;;;;;;;66.90;23.00;;;;;;;7.44;100.00;102831.00;5217930;28;20029;-75
2021/12/14 09:15:23;;;;;;;72.90;23.75;;;;;;;7.47;100.00;102836.13;5211902;28;20029;-74
2021/12/14 09:17:55;;;;;;;70.78;23.40;;;;;;;7.52;100.00;102840.19;5227300;28;20099;-75
2021/12/14 09:20:33;;;;;;;69.10;22.75;;;;;;;7.61;100.00;102830.75;5226950;28;20087;-75
2021/12/14 09:23:10;;;;;;;66.43;23.33;;;;;;;7.66;100.00;102842.00;5221266;28;20029;-74
2021/12/14 09:25:42;;;;;;;67.13;22.17;;;;;;;7.61;100.00;102840.59;5220875;28;20021;-74
2021/12/14 09:28:14;;;;;;;72.60;23.25;;;;;;;7.70;100.00;102840.00;5219617;28;20025;-74
2021/12/14 09:30:51;;;;;;;61.20;19.60;;;;;;;7.75;100.00;102845.91;5218750;28;20459;-74
2021/12/14 09:33:23;;;;;;;65.60;21.52;;;;;;;7.70;100.00;102848.00;5221587;28;20048;-75
2021/12/14 09:35:57;;;;;;;69.15;24.38;;;;;;;7.82;100.00;102852.56;5203453;28;20789;-75
2021/12/14 09:38:32;;;;;;;64.65;21.65;;;;;;;7.83;100.00;102859.63;5219759;28;20033;-74
2021/12/14 09:41:06;;;;;;;;;;;;;;;7.87;100.00;102858.44;5220400;28;20061;-74
2021/12/14 09:43:38;;;;;;;60.03;21.50;;;;;;;7.94;100.00;102850.91;5221123;28;19916;-73
2021/12/14 09:46:09;;;;;;;56.00;20.17;;;;;;;7.95;100.00;102858.81;5220926;28;20075;-74
2021/12/14 09:48:45;;;;;;;56.45;20.80;;;;;;;8.01;100.00;102850.41;5220959;28;20116;-73
2021/12/14 09:51:21;;;;;;;62.33;20.85;;;;;;;8.09;100.00;102844.56;5211121;28;20029;-73
2021/12/14 09:53:55;;;;;;;58.05;20.33;;;;;;;8.07;100.00;102842.94;5215538;28;20056;-73
2021/12/14 09:56:29;;;;;;;55.83;19.30;;;;;;;8.13;100.00;102842.50;5217993;28;20081;-73
2021/12/14 09:59:01;;;;;;;60.05;20.83;;;;;;;8.20;100.00;102849.19;5214778;28;20610;-73
2021/12/14 10:01:38;;;;;;;59.17;21.17;;;;;;;8.15;100.00;102845.97;5218450;28;20029;-73
2021/12/14 10:04:15;;;;;;;61.88;21.40;;;;;;;8.12;100.00;102841.66;5216303;28;20477;-72
2021/12/14 10:06:49;;;;;;;60.85;19.50;;;;;;;8.02;100.00;102844.09;5205962;28;20035;-74
2021/12/14 10:09:23;;;;;;;57.60;20.83;;;;;;;7.99;100.00;102836.28;5217543;28;20063;-74
2021/12/14 10:12:15;;;;;;;64.05;21.50;;;;;;;7.95;100.00;102828.56;5217939;28;20452;-74
2021/12/14 10:14:50;;;;;;;60.38;21.00;;;;;;;7.93;100.00;102823.34;5206811;28;20528;-74
2021/12/14 10:17:24;;;;;;;57.08;20.40;;;;;;;7.92;100.00;102837.63;5203789;28;20052;-75
2021/12/14 10:19:55;;;;;;;61.42;21.20;;;;;;;8.00;100.00;102831.78;5204503;28;20390;-73
2021/12/14 10:22:31;;;;;;;62.05;20.98;;;;;;;7.97;100.00;102835.50;5206901;28;20021;-73
2021/12/14 10:25:08;;;;;;;72.97;22.02;;;;;;;8.01;100.00;102836.19;5203511;28;20109;-74
2021/12/14 10:27:39;;;;;;;59.05;20.40;;;;;;;8.01;100.00;102837.03;5210538;28;20047;-73
2021/12/14 10:30:16;;;;;;;57.67;21.40;;;;;;;8.02;100.00;102846.75;5216105;28;20079;-73
2021/12/14 10:32:48;;;;;;;57.83;20.13;;;;;;;8.01;100.00;102846.88;5212592;28;20048;-73
2021/12/14 10:35:24;;;;;;;57.65;21.25;;;;;;;8.03;100.00;102839.59;5202347;28;20076;-74
2021/12/14 10:37:59;;;;;;;59.33;21.17;;;;;;;8.06;100.00;102836.72;5213287;28;20474;-74
2021/12/14 10:43:25;;;;;;;59.30;21.42;;;;;;;8.10;100.00;102842.75;5215464;28;20022;-73
2021/12/14 10:46:00;;;;;;;58.72;21.77;;;;;;;8.12;100.00;102839.00;5212038;28;20036;-73
2021/12/14 10:48:35;;;;;;;55.13;19.83;;;;;;;8.16;100.00;102839.66;5212179;28;20033;-74
2021/12/14 10:51:10;;;;;;;55.78;20.75;;;;;;;8.19;100.00;102826.09;5212861;28;20454;-75
2021/12/14 10:53:45;;;;;;;62.13;22.13;;;;;;;8.24;100.00;102832.00;5209420;28;20100;-72
2021/12/14 10:56:20;;;;;;;58.20;20.80;;;;;;;8.36;100.00;102833.84;5210321;28;20171;-75
2021/12/14 10:58:53;;;;;;;59.53;21.75;;;;;;;8.42;100.00;102843.28;5206476;28;20060;-74
2021/12/14 11:01:31;;;;;;;60.10;21.65;;;;;;;8.44;100.00;102838.69;5214515;28;20060;-74
2021/12/14 11:04:06;;;;;;;51.42;20.05;;;;;;;8.49;100.00;102836.56;5215066;28;20052;-74
2021/12/14 11:06:42;;;;;;;57.45;21.10;;;;;;;8.48;100.00;102837.50;5202628;28;20025;-74
2021/12/14 11:09:42;;;;;;;59.95;21.02;;;;;;;8.52;100.00;102839.88;5209734;28;20036;-74
2021/12/14 11:12:18;;;;;;;51.95;20.13;;;;;;;8.65;100.00;102829.22;5205398;28;20060;-74
2021/12/14 11:14:54;;;;;;;58.28;23.38;;;;;;;8.66;100.00;102825.56;5202716;28;20437;-74
2021/12/14 11:20:33;;;;;;;54.17;20.42;;;;;;;8.70;100.00;102826.22;5200330;28;20147;-75
2021/12/14 11:23:08;;;;;;;;;;;;;;;8.70;100.00;102820.88;5210336;28;20074;-74
2021/12/14 11:25:51;;;;;;;57.20;21.13;;;;;;;8.68;100.00;102812.06;5207262;28;19995;-74
2021/12/14 11:28:30;;;;;;;51.13;21.42;;;;;;;8.63;100.00;102822.22;5213591;28;20029;-74
2021/12/14 11:31:14;;;;;;;54.85;20.58;;;;;;;8.57;100.00;102818.16;5215710;28;20047;-74
2021/12/14 11:33:49;;;;;;;55.83;20.70;;;;;;;8.63;100.00;102811.53;5206572;28;20627;-74
2021/12/14 11:36:32;;;;;;;53.03;21.23;;;;;;;8.61;100.00;102816.13;5211500;28;20615;-73
2021/12/14 11:39:08;;;;;;;50.67;19.77;;;;;;;8.65;100.00;102820.31;5200451;28;20041;-73
2021/12/14 11:41:49;;;;;;;46.60;18.27;;;;;;;8.70;100.00;102804.81;5210952;28;20138;-74
2021/12/14 11:44:19;;;;;;;57.50;20.85;;;;;;;8.77;100.00;102803.41;5209203;28;20029;-74
2021/12/14 11:46:51;;;;;;;51.72;20.25;;;;;;;8.82;100.00;102806.63;5216115;28;20374;-73
2021/12/14 11:49:38;;;;;;;61.35;25.08;;;;;;;8.92;100.00;102821.06;5217249;28;20119;-73
2021/12/14 11:52:10;;;;;;;60.78;22.55;;;;;;;8.90;100.00;102812.31;5209722;28;20024;-73
2021/12/14 11:54:47;;;;;;;54.75;21.83;;;;;;;8.86;100.00;102815.28;5212098;28;20032;-73
2021/12/14 11:57:17;;;;;;;51.95;22.90;;;;;;;8.87;100.00;102812.50;5212938;28;20060;-72
2021/12/14 11:59:59;;;;;;;66.35;29.25;;;;;;;8.88;100.00;102819.56;5216110;28;20132;-73
2021/12/14 12:02:30;;;;;;;56.47;20.27;;;;;;;8.82;100.00;102812.81;5221345;28;20048;-72
2021/12/14 12:05:21;;;;;;;54.95;20.40;;;;;;;8.84;100.00;102812.75;5217572;28;20036;-72
2021/12/14 12:10:44;;;;;;;56.00;21.13;;;;;;;8.87;100.00;102811.66;5215100;28;20132;-72
2021/12/14 12:13:15;;;;;;;58.00;21.55;;;;;;;8.88;100.00;102810.69;5219394;28;20036;-73
2021/12/14 12:15:46;;;;;;;57.67;21.60;;;;;;;8.84;100.00;102817.25;5217458;28;20029;-73
2021/12/14 12:18:16;;;;;;;56.83;22.13;;;;;;;8.87;100.00;102800.94;5202025;28;20021;-73
2021/12/14 12:20:49;;;;;;;51.67;21.45;;;;;;;8.97;100.00;102805.53;5214332;28;20025;-73
2021/12/14 12:23:24;;;;;;;68.07;25.83;;;;;;;8.97;100.00;102796.66;5217596;28;20021;-74
2021/12/14 12:25:59;;;;;;;54.70;23.50;;;;;;;8.97;100.00;102804.69;5209658;28;20482;-73
2021/12/14 12:28:36;;;;;;;63.92;21.27;;;;;;;8.96;100.00;102801.16;5215283;28;20109;-74
2021/12/14 12:31:13;;;;;;;53.90;20.08;;;;;;;9.00;100.00;102813.38;5219419;28;20024;-73
2021/12/14 12:33:48;;;;;;;57.17;20.35;;;;;;;9.04;100.00;102812.19;5220019;28;20033;-73
2021/12/14 12:36:37;;;;;;;58.35;20.30;;;;;;;9.01;100.00;102806.19;5213274;28;20036;-74